createdAt,value
2023-05-02T00:00:05.241Z,71.95
2023-05-02T00:08:09.548Z,67.22
2023-05-02T00:12:11.302Z,67.03
2023-05-02T00:16:13.054Z,65.45
2023-05-02T00:20:14.853Z,69.75
2023-05-02T00:24:18.457Z,70.10
2023-05-02T00:28:20.053Z,70.35
2023-05-02T00:32:21.761Z,62.85
2023-05-02T00:36:23.368Z,70.40
2023-05-02T00:40:25.252Z,71.82
2023-05-02T00:44:26.870Z,78.00
2023-05-02T00:48:28.573Z,74.05
2023-05-02T00:52:30.272Z,74.10
2023-05-02T00:56:32.001Z,72.20
2023-05-02T01:01:05.824Z,73.47
2023-05-02T01:05:34.169Z,72.90
2023-05-02T01:10:09.838Z,77.22
2023-05-02T01:14:12.579Z,82.18
2023-05-02T01:18:18.413Z,75.20
2023-05-02T01:22:22.409Z,86.30
2023-05-02T01:26:34.701Z,91.55
2023-05-02T01:30:39.488Z,84.10
2023-05-02T01:34:43.163Z,82.45
2023-05-02T01:38:45.477Z,76.65
2023-05-02T01:42:50.035Z,91.77
2023-05-02T01:46:54.905Z,81.80
2023-05-02T01:50:58.454Z,96.70
2023-05-02T01:55:01.285Z,82.13
2023-05-02T01:59:08.166Z,90.50
2023-05-02T02:03:10.426Z,98.97
2023-05-02T02:07:14.010Z,92.00
2023-05-02T02:11:20.475Z,100.03
2023-05-02T02:15:28.334Z,106.70
2023-05-02T02:19:31.975Z,112.30
2023-05-02T02:23:36.531Z,119.15
2023-05-02T02:27:38.389Z,120.10
2023-05-02T02:31:40.132Z,133.00
2023-05-02T02:35:48.224Z,134.60
2023-05-02T02:40:22.052Z,146.75
2023-05-02T02:44:54.757Z,144.27
2023-05-02T02:49:19.831Z,135.13
2023-05-02T02:53:33.742Z,158.00
2023-05-02T02:57:57.937Z,136.15
2023-05-02T03:02:19.307Z,137.15
2023-05-02T03:06:21.592Z,166.20
2023-05-02T03:10:23.689Z,161.90
2023-05-02T03:14:25.496Z,174.65
2023-05-02T03:18:27.093Z,136.85
2023-05-02T03:22:28.718Z,139.10
2023-05-02T03:26:30.740Z,141.77
2023-05-02T03:30:32.472Z,138.82
2023-05-02T03:34:34.150Z,135.40
2023-05-02T03:38:35.881Z,150.20
2023-05-02T03:42:41.508Z,141.60
2023-05-02T03:46:43.313Z,133.55
2023-05-02T03:50:44.969Z,158.63
2023-05-02T03:54:46.713Z,124.97
2023-05-02T03:58:48.998Z,140.90
2023-05-02T04:02:51.267Z,130.30
2023-05-02T04:06:53.170Z,128.13
2023-05-02T04:10:54.871Z,118.13
2023-05-02T04:14:56.522Z,126.63
2023-05-02T04:19:00.231Z,104.95
2023-05-02T04:23:01.905Z,120.43
2023-05-02T04:27:03.561Z,110.22
2023-05-02T04:31:05.824Z,118.43
2023-05-02T04:35:07.884Z,113.93
2023-05-02T04:39:09.809Z,92.45
2023-05-02T04:43:11.402Z,86.43
2023-05-02T04:47:13.197Z,71.80
2023-05-02T04:51:16.974Z,85.40
2023-05-02T04:55:19.019Z,74.95
2023-05-02T04:59:20.803Z,78.25
2023-05-02T05:03:22.538Z,86.13
2023-05-02T05:07:25.618Z,87.32
2023-05-02T05:11:27.306Z,73.68
2023-05-02T05:15:32.907Z,80.03
2023-05-02T05:19:34.542Z,98.25
2023-05-02T05:23:37.680Z,88.45
2023-05-02T05:31:41.904Z,74.57
2023-05-02T05:35:43.543Z,82.60
2023-05-02T05:39:45.650Z,86.30
2023-05-02T05:43:47.278Z,97.30
2023-05-02T05:47:48.980Z,82.82
2023-05-02T05:51:50.736Z,87.97
2023-05-02T05:55:52.455Z,96.78
2023-05-02T05:59:54.156Z,94.80
2023-05-02T06:03:56.467Z,83.82
2023-05-02T06:07:58.628Z,84.95
2023-05-02T06:12:02.311Z,66.30
2023-05-02T06:16:04.410Z,58.78
2023-05-02T06:20:07.163Z,63.80
2023-05-02T06:24:08.842Z,55.83
2023-05-02T06:28:10.475Z,33.35
2023-05-02T06:32:12.125Z,52.92
2023-05-02T06:36:13.820Z,55.45
2023-05-02T06:40:15.948Z,55.08
2023-05-02T06:44:17.622Z,51.03
2023-05-02T06:48:19.446Z,33.03
2023-05-02T06:52:21.146Z,41.47
2023-05-02T06:56:25.498Z,38.40
2023-05-02T07:00:27.353Z,44.30
2023-05-02T07:04:31.834Z,36.25
2023-05-02T07:08:33.691Z,33.30
2023-05-02T07:12:35.587Z,29.50
2023-05-02T07:16:37.458Z,28.52
2023-05-02T07:20:41.435Z,33.85
2023-05-02T07:24:43.619Z,34.45
2023-05-02T07:28:45.516Z,34.97
2023-05-02T07:32:49.881Z,31.42
2023-05-02T07:36:51.495Z,30.50
2023-05-02T07:40:53.367Z,25.83
2023-05-02T07:44:54.974Z,24.33
2023-05-02T07:48:56.859Z,28.67
2023-05-02T07:52:58.590Z,30.15
2023-05-02T07:57:02.924Z,26.02
2023-05-02T08:01:04.879Z,23.83
2023-05-02T08:05:07.924Z,24.85
2023-05-02T08:13:12.092Z,23.77
2023-05-02T08:17:13.795Z,27.47
2023-05-02T08:21:15.450Z,25.05
2023-05-02T08:25:17.134Z,29.70
2023-05-02T08:29:18.898Z,25.90
2023-05-02T08:33:21.063Z,28.70
2023-05-02T08:37:23.149Z,28.60
2023-05-02T08:41:25.472Z,35.83
2023-05-02T08:45:27.317Z,28.67
2023-05-02T08:49:34.976Z,22.17
2023-05-02T08:53:37.902Z,25.98
2023-05-02T08:57:41.048Z,27.55
2023-05-02T09:05:51.531Z,23.58
2023-05-02T09:09:53.385Z,19.05
2023-05-02T09:13:56.006Z,21.40
2023-05-02T09:17:57.850Z,23.85
2023-05-02T09:22:01.391Z,20.40
2023-05-02T09:26:33.161Z,17.40
2023-05-02T09:30:35.145Z,17.45
2023-05-02T09:34:38.842Z,13.15
2023-05-02T09:38:44.894Z,21.65
2023-05-02T09:42:47.177Z,12.68
2023-05-02T09:46:57.479Z,9.53
2023-05-02T09:50:59.668Z,13.65
2023-05-02T09:55:01.520Z,13.20
2023-05-02T09:59:14.574Z,18.42
2023-05-02T10:03:17.873Z,16.85
2023-05-02T10:07:20.194Z,13.80
2023-05-02T10:11:22.536Z,13.20
2023-05-02T10:15:26.181Z,7.28
2023-05-02T10:19:38.511Z,8.85
2023-05-02T10:23:46.529Z,4.50
2023-05-02T10:27:48.756Z,7.55
2023-05-02T10:31:51.554Z,10.17
2023-05-02T10:35:53.575Z,11.48
2023-05-02T10:43:59.949Z,8.30
2023-05-02T10:48:14.701Z,12.50
2023-05-02T10:52:30.401Z,10.65
2023-05-02T10:56:32.064Z,9.07
2023-05-02T11:00:34.705Z,10.48
2023-05-02T11:05:09.137Z,10.93
2023-05-02T11:09:15.000Z,7.05
2023-05-02T11:13:16.750Z,9.43
2023-05-02T11:17:18.768Z,19.10
2023-05-02T11:21:32.601Z,13.52
2023-05-02T11:25:39.176Z,7.80
2023-05-02T11:29:54.138Z,10.23
2023-05-02T11:34:00.220Z,15.35
2023-05-02T11:38:03.894Z,9.05
2023-05-02T11:42:05.756Z,19.00
2023-05-02T11:46:07.473Z,18.30
2023-05-02T11:50:09.801Z,12.68
2023-05-02T11:54:19.328Z,12.17
2023-05-02T11:58:23.460Z,21.00
2023-05-02T12:02:45.038Z,18.00
2023-05-02T12:06:59.245Z,15.60
2023-05-02T12:11:01.163Z,8.00
2023-05-02T12:15:10.019Z,14.93
2023-05-02T12:19:12.906Z,15.20
2023-05-02T12:23:14.875Z,17.63
2023-05-02T12:27:17.087Z,15.55
2023-05-02T12:31:19.504Z,19.13
2023-05-02T12:35:23.154Z,14.68
2023-05-02T12:39:42.752Z,15.70
2023-05-02T12:43:47.356Z,13.38
2023-05-02T12:47:49.226Z,25.35
2023-05-02T12:51:55.666Z,13.98
2023-05-02T12:56:03.815Z,21.88
2023-05-02T13:00:06.480Z,17.63
2023-05-02T13:04:08.172Z,10.73
2023-05-02T13:08:09.867Z,17.02
2023-05-02T13:12:11.561Z,13.10
2023-05-02T13:16:13.311Z,16.60
2023-05-02T13:20:15.522Z,23.25
2023-05-02T13:24:17.589Z,19.83
2023-05-02T13:28:19.576Z,16.42
2023-05-02T13:32:21.884Z,24.30
2023-05-02T13:36:24.498Z,14.25
2023-05-02T13:40:26.232Z,12.85
2023-05-02T13:44:27.942Z,17.02
2023-05-02T13:48:29.996Z,13.63
2023-05-02T13:52:31.752Z,13.17
2023-05-02T13:56:33.508Z,10.43
2023-05-02T14:00:35.551Z,13.88
2023-05-02T14:04:37.218Z,17.87
2023-05-02T14:08:38.903Z,10.27
2023-05-02T14:12:40.567Z,10.63
2023-05-02T14:16:42.581Z,19.95
2023-05-02T14:20:44.424Z,16.85
2023-05-02T14:24:46.349Z,15.45
2023-05-02T14:28:48.013Z,17.85
2023-05-02T14:32:49.682Z,12.68
2023-05-02T14:36:51.411Z,17.50
2023-05-02T14:40:53.017Z,22.38
2023-05-02T14:44:54.652Z,11.73
2023-05-02T14:48:56.859Z,14.68
2023-05-02T14:52:58.530Z,16.03
2023-05-02T14:57:00.703Z,19.40
2023-05-02T15:01:02.493Z,9.40
2023-05-02T15:05:07.210Z,16.30
2023-05-02T15:09:09.003Z,10.77
2023-05-02T15:13:10.787Z,30.15
2023-05-02T15:17:13.215Z,15.95
2023-05-02T15:21:14.970Z,15.35
2023-05-02T15:25:16.659Z,12.85
2023-05-02T15:29:18.360Z,23.27
2023-05-02T15:33:20.007Z,18.73
2023-05-02T15:37:21.697Z,19.10
2023-05-02T15:41:26.864Z,18.60
2023-05-02T15:45:28.542Z,18.80
2023-05-02T15:49:33.437Z,14.40
2023-05-02T15:53:42.339Z,24.38
2023-05-02T15:57:43.943Z,16.23
2023-05-02T16:01:45.761Z,13.80
2023-05-02T16:05:47.472Z,13.77
2023-05-02T16:09:49.132Z,13.13
2023-05-02T16:13:50.815Z,14.82
2023-05-02T16:17:52.743Z,18.17
2023-05-02T16:21:54.447Z,21.90
2023-05-02T16:26:00.895Z,19.15
2023-05-02T16:30:02.916Z,15.82
2023-05-02T16:34:04.848Z,15.30
2023-05-02T16:38:06.569Z,8.27
2023-05-02T16:42:08.209Z,8.70
2023-05-02T16:46:09.875Z,12.43
2023-05-02T16:50:11.660Z,24.77
2023-05-02T16:54:13.286Z,7.40
2023-05-02T16:58:14.992Z,14.48
2023-05-02T17:02:18.878Z,14.32
2023-05-02T17:06:20.558Z,11.02
2023-05-02T17:10:22.372Z,8.15
2023-05-02T17:14:24.100Z,9.40
2023-05-02T17:18:26.401Z,13.02
2023-05-02T17:22:28.170Z,15.75
2023-05-02T17:26:29.809Z,19.73
2023-05-02T17:30:32.026Z,10.00
2023-05-02T17:34:35.679Z,15.23
2023-05-02T17:38:37.411Z,12.23
2023-05-02T17:42:39.117Z,9.75
2023-05-02T17:46:41.591Z,12.43
2023-05-02T17:50:43.748Z,10.70
2023-05-02T17:54:45.638Z,11.33
2023-05-02T17:58:47.347Z,17.98
2023-05-02T18:02:49.161Z,16.10
2023-05-02T18:06:51.593Z,13.25
2023-05-02T18:10:53.468Z,20.20
2023-05-02T18:14:55.618Z,10.95
2023-05-02T18:18:57.279Z,9.80
2023-05-02T18:23:01.168Z,13.90
2023-05-02T18:27:03.126Z,14.45
2023-05-02T18:31:04.889Z,18.45
2023-05-02T18:35:12.604Z,27.27
2023-05-02T18:39:14.570Z,13.25
2023-05-02T18:43:16.174Z,18.13
2023-05-02T18:47:17.850Z,18.13
2023-05-02T18:51:19.499Z,29.20
2023-05-02T18:55:24.862Z,38.72
2023-05-02T18:59:26.752Z,29.40
2023-05-02T19:03:28.610Z,23.15
2023-05-02T19:07:30.353Z,13.32
2023-05-02T19:11:31.957Z,24.17
2023-05-02T19:15:34.078Z,20.70
2023-05-02T19:19:35.711Z,86.60
2023-05-02T19:23:37.482Z,17.98
2023-05-02T19:27:40.582Z,25.08
2023-05-02T19:31:43.731Z,20.45
2023-05-02T19:35:45.669Z,35.30
2023-05-02T19:39:47.287Z,14.20
2023-05-02T19:43:49.003Z,40.65
2023-05-02T19:47:50.788Z,30.33
2023-05-02T19:51:52.431Z,14.65
2023-05-02T19:55:54.309Z,16.92
2023-05-02T19:59:55.980Z,20.38
2023-05-02T20:03:58.126Z,16.42
2023-05-02T20:08:00.006Z,15.65
2023-05-02T20:12:01.801Z,14.30
2023-05-02T20:16:03.741Z,22.98
2023-05-02T20:20:11.315Z,20.67
2023-05-02T20:24:12.940Z,16.58
2023-05-02T20:28:14.895Z,16.58
2023-05-02T20:32:16.719Z,20.65
2023-05-02T20:36:18.444Z,56.67
2023-05-02T20:40:22.335Z,65.38
2023-05-02T20:44:26.844Z,72.63
2023-05-02T20:48:28.449Z,85.35
2023-05-02T20:52:30.654Z,59.05
2023-05-02T20:56:32.265Z,41.80
2023-05-02T21:00:33.876Z,38.03
2023-05-02T21:04:35.602Z,25.00
2023-05-02T21:08:37.245Z,25.65
2023-05-02T21:12:39.619Z,13.48
2023-05-02T21:16:41.275Z,24.30
2023-05-02T21:20:42.945Z,13.98
2023-05-02T21:24:48.047Z,17.33
2023-05-02T21:28:49.698Z,17.83
2023-05-02T21:32:51.543Z,10.98
2023-05-02T21:36:53.229Z,11.18
2023-05-02T21:40:54.963Z,14.70
2023-05-02T21:44:56.729Z,13.13
2023-05-02T21:48:58.431Z,18.60
2023-05-02T21:53:01.402Z,17.27
2023-05-02T21:57:03.685Z,20.80
2023-05-02T22:01:05.495Z,25.83
2023-05-02T22:05:08.352Z,19.17
2023-05-02T22:09:10.538Z,14.65
2023-05-02T22:13:13.811Z,14.57
2023-05-02T22:17:18.432Z,19.70
2023-05-02T22:21:20.209Z,15.10
2023-05-02T22:25:21.990Z,9.38
2023-05-02T22:29:23.790Z,14.88
2023-05-02T22:33:25.414Z,16.05
2023-05-02T22:37:27.104Z,12.00
2023-05-02T22:41:28.885Z,8.07
2023-05-02T22:45:30.576Z,12.30
2023-05-02T22:49:33.121Z,18.15
2023-05-02T22:53:35.472Z,13.68
2023-05-02T22:57:37.235Z,17.17
2023-05-02T23:01:38.969Z,13.88
2023-05-02T23:05:40.832Z,14.75
2023-05-02T23:09:42.475Z,15.02
2023-05-02T23:13:44.170Z,12.60
2023-05-02T23:17:45.953Z,11.65
2023-05-02T23:21:47.664Z,16.35
2023-05-02T23:25:49.607Z,12.48
2023-05-02T23:29:51.693Z,16.35
2023-05-02T23:33:54.743Z,18.35
2023-05-02T23:37:59.021Z,25.17
2023-05-02T23:42:03.592Z,20.92
2023-05-02T23:46:06.245Z,16.33
2023-05-02T23:50:08.272Z,15.80
2023-05-02T23:54:09.899Z,21.90
2023-05-02T23:58:11.741Z,13.18
